createdAt,value
2023-02-22T00:00:42.781Z,8.10
2023-02-22T00:03:12.883Z,8.20
2023-02-22T00:05:40.699Z,8.30
2023-02-22T00:08:10.111Z,8.30
2023-02-22T00:10:39.537Z,8.40
2023-02-22T00:13:11.263Z,8.50
2023-02-22T00:15:41.434Z,8.50
2023-02-22T00:18:11.376Z,8.60
2023-02-22T00:20:39.824Z,8.60
2023-02-22T00:23:09.498Z,8.50
2023-02-22T00:25:37.599Z,8.50
2023-02-22T00:28:05.890Z,8.10
2023-02-22T00:30:35.129Z,8.00
2023-02-22T00:33:23.669Z,7.80
2023-02-22T00:35:51.535Z,7.80
2023-02-22T00:38:20.489Z,7.60
2023-02-22T00:40:48.309Z,7.60
2023-02-22T00:43:16.790Z,7.50
2023-02-22T00:45:46.069Z,7.40
2023-02-22T00:48:14.146Z,7.30
2023-02-22T00:50:42.022Z,7.30
2023-02-22T00:53:10.287Z,7.20
2023-02-22T00:55:39.100Z,7.20
2023-02-22T00:58:07.949Z,7.30
2023-02-22T01:00:37.503Z,7.20
2023-02-22T01:03:07.453Z,7.30
2023-02-22T01:05:35.910Z,7.20
2023-02-22T01:08:06.489Z,7.20
2023-02-22T01:10:35.359Z,7.20
2023-02-22T01:13:08.366Z,7.30
2023-02-22T01:15:38.154Z,7.30
2023-02-22T01:18:07.940Z,7.20
2023-02-22T01:20:35.834Z,7.40
2023-02-22T01:23:06.583Z,7.30
2023-02-22T01:25:36.030Z,7.20
2023-02-22T01:28:07.994Z,7.20
2023-02-22T01:30:37.588Z,7.20
2023-02-22T01:33:08.673Z,7.20
2023-02-22T01:35:40.744Z,7.30
2023-02-22T01:38:09.519Z,7.10
2023-02-22T01:40:39.495Z,7.00
2023-02-22T01:43:17.112Z,6.90
2023-02-22T01:45:51.149Z,6.90
2023-02-22T01:48:24.800Z,7.10
2023-02-22T01:50:56.674Z,7.20
2023-02-22T01:53:28.084Z,7.10
2023-02-22T01:55:57.370Z,7.00
2023-02-22T01:58:26.983Z,7.10
2023-02-22T02:00:55.171Z,7.20
2023-02-22T02:03:28.529Z,7.10
2023-02-22T02:06:00.514Z,7.10
2023-02-22T02:08:36.077Z,7.20
2023-02-22T02:11:08.943Z,7.20
2023-02-22T02:13:37.940Z,7.30
2023-02-22T02:16:06.499Z,7.30
2023-02-22T02:18:35.816Z,7.30
2023-02-22T02:21:37.146Z,7.30
2023-02-22T02:24:34.206Z,7.30
2023-02-22T02:27:14.795Z,7.50
2023-02-22T02:30:27.114Z,7.50
2023-02-22T02:32:59.012Z,7.50
2023-02-22T02:35:36.726Z,7.50
2023-02-22T02:38:12.714Z,7.40
2023-02-22T02:40:47.301Z,7.30
2023-02-22T02:43:22.494Z,7.30
2023-02-22T02:45:55.414Z,7.20
2023-02-22T02:48:28.210Z,7.10
2023-02-22T02:51:04.282Z,7.00
2023-02-22T02:53:36.045Z,7.10
2023-02-22T02:56:04.725Z,7.00
2023-02-22T02:58:32.759Z,7.10
2023-02-22T03:01:04.621Z,7.20
2023-02-22T03:03:53.408Z,7.30
2023-02-22T03:06:39.863Z,7.30
2023-02-22T03:09:16.670Z,7.50
2023-02-22T03:12:01.337Z,7.50
2023-02-22T03:14:39.414Z,7.50
2023-02-22T03:17:19.099Z,7.50
2023-02-22T03:19:52.651Z,7.60
2023-02-22T03:22:27.323Z,7.70
2023-02-22T03:25:02.133Z,7.60
2023-02-22T03:27:35.732Z,7.80
2023-02-22T03:30:08.178Z,7.80
2023-02-22T03:32:39.452Z,7.80
2023-02-22T03:35:15.421Z,7.70
2023-02-22T03:37:47.291Z,7.50
2023-02-22T03:40:19.794Z,7.50
2023-02-22T03:42:51.862Z,7.70
2023-02-22T03:45:22.213Z,7.80
2023-02-22T03:47:54.819Z,7.80
2023-02-22T03:50:29.829Z,7.90
2023-02-22T03:52:59.278Z,8.00
2023-02-22T03:55:28.900Z,8.10
2023-02-22T03:57:59.927Z,8.10
2023-02-22T04:00:30.800Z,8.20
2023-02-22T04:02:58.872Z,8.20
2023-02-22T04:05:28.104Z,8.10
2023-02-22T04:07:57.909Z,7.80
2023-02-22T04:10:26.279Z,7.80
2023-02-22T04:12:54.522Z,7.80
2023-02-22T04:15:24.632Z,7.70
2023-02-22T04:17:53.180Z,7.70
2023-02-22T04:20:25.443Z,7.70
2023-02-22T04:22:55.946Z,7.70
2023-02-22T04:25:25.155Z,7.80
2023-02-22T04:27:53.488Z,7.90
2023-02-22T04:30:21.916Z,7.90
2023-02-22T04:32:49.955Z,7.70
2023-02-22T04:35:17.987Z,7.70
2023-02-22T04:37:45.793Z,7.80
2023-02-22T04:40:16.682Z,8.00
2023-02-22T04:42:44.592Z,8.00
2023-02-22T04:45:12.837Z,8.10
2023-02-22T04:47:41.006Z,8.10
2023-02-22T04:50:12.823Z,8.10
2023-02-22T04:52:40.660Z,8.20
2023-02-22T04:55:09.851Z,8.20
2023-02-22T04:57:39.037Z,8.00
2023-02-22T05:00:10.144Z,8.10
2023-02-22T05:02:39.932Z,8.10
2023-02-22T05:05:08.142Z,8.20
2023-02-22T05:07:36.014Z,8.20
2023-02-22T05:10:03.924Z,8.20
2023-02-22T05:12:31.767Z,8.30
2023-02-22T05:15:00.932Z,8.40
2023-02-22T05:17:28.771Z,8.40
2023-02-22T05:19:56.694Z,8.40
2023-02-22T05:22:24.532Z,8.40
2023-02-22T05:24:52.599Z,8.40
2023-02-22T05:27:20.789Z,8.30
2023-02-22T05:29:48.753Z,8.10
2023-02-22T05:32:17.962Z,8.10
2023-02-22T05:34:45.840Z,8.00
2023-02-22T05:37:13.657Z,8.00
2023-02-22T05:39:46.436Z,7.80
2023-02-22T05:42:14.310Z,7.60
2023-02-22T05:44:42.139Z,7.50
2023-02-22T05:47:09.956Z,7.60
2023-02-22T05:49:39.123Z,7.40
2023-02-22T05:52:06.948Z,7.40
2023-02-22T05:54:34.942Z,7.40
2023-02-22T05:57:02.782Z,7.40
2023-02-22T05:59:30.792Z,7.50
2023-02-22T06:01:58.713Z,7.60
2023-02-22T06:04:27.799Z,7.70
2023-02-22T06:06:56.988Z,7.80
2023-02-22T06:09:26.439Z,7.90
2023-02-22T06:11:54.602Z,8.00
2023-02-22T06:14:22.615Z,7.90
2023-02-22T06:16:54.368Z,8.00
2023-02-22T06:19:22.227Z,8.00
2023-02-22T06:21:51.122Z,8.00
2023-02-22T06:24:20.938Z,8.00
2023-02-22T06:26:55.174Z,8.00
2023-02-22T06:29:23.667Z,8.00
2023-02-22T06:31:51.929Z,8.00
2023-02-22T06:34:21.744Z,7.90
2023-02-22T06:36:50.361Z,7.80
2023-02-22T06:39:19.998Z,7.80
2023-02-22T06:41:50.458Z,7.80
2023-02-22T06:44:18.346Z,7.80
2023-02-22T06:46:49.105Z,7.80
2023-02-22T06:49:16.925Z,7.90
2023-02-22T06:51:45.037Z,7.90
2023-02-22T06:54:12.991Z,7.90
2023-02-22T06:56:42.211Z,8.00
2023-02-22T06:59:10.034Z,8.10
2023-02-22T07:01:37.869Z,8.10
2023-02-22T07:04:05.723Z,8.10
2023-02-22T07:06:33.603Z,8.10
2023-02-22T07:09:01.622Z,8.10
2023-02-22T07:11:29.491Z,8.30
2023-02-22T07:13:58.647Z,8.40
2023-02-22T07:16:26.487Z,8.50
2023-02-22T07:18:54.382Z,8.60
2023-02-22T07:21:22.215Z,8.60
2023-02-22T07:23:54.189Z,8.70
2023-02-22T07:26:22.725Z,8.80
2023-02-22T07:28:50.807Z,8.80
2023-02-22T07:31:20.456Z,8.80
2023-02-22T07:33:49.214Z,8.10
2023-02-22T07:36:17.951Z,8.00
2023-02-22T07:38:46.233Z,7.90
2023-02-22T07:41:14.421Z,7.90
2023-02-22T07:43:42.478Z,8.00
2023-02-22T07:46:10.307Z,8.10
2023-02-22T07:48:39.655Z,8.10
2023-02-22T07:51:09.726Z,8.00
2023-02-22T07:53:37.621Z,8.00
2023-02-22T07:56:08.728Z,7.90
2023-02-22T07:58:36.687Z,7.90
2023-02-22T08:01:05.490Z,8.10
2023-02-22T08:03:36.513Z,8.20
2023-02-22T08:06:07.609Z,8.20
2023-02-22T08:08:35.508Z,8.40
2023-02-22T08:11:03.499Z,8.40
2023-02-22T08:13:31.427Z,8.50
2023-02-22T08:15:59.292Z,8.50
2023-02-22T08:18:27.294Z,8.50
2023-02-22T08:20:55.848Z,8.40
2023-02-22T08:23:27.059Z,8.30
2023-02-22T08:25:55.550Z,8.20
2023-02-22T08:28:25.692Z,8.20
2023-02-22T08:30:54.149Z,8.00
2023-02-22T08:33:22.362Z,7.90
2023-02-22T08:35:51.613Z,7.90
2023-02-22T08:38:22.157Z,8.10
2023-02-22T08:40:51.899Z,8.10
2023-02-22T08:43:21.045Z,8.00
2023-02-22T08:45:49.781Z,8.10
2023-02-22T08:48:18.113Z,8.10
2023-02-22T08:50:46.681Z,8.20
2023-02-22T08:53:16.237Z,8.20
2023-02-22T08:55:44.401Z,8.20
2023-02-22T08:58:14.350Z,8.10
2023-02-22T09:00:44.580Z,8.00
2023-02-22T09:03:14.516Z,8.10
2023-02-22T09:05:43.048Z,8.10
2023-02-22T09:08:11.131Z,8.10
2023-02-22T09:10:39.255Z,7.90
2023-02-22T09:13:10.090Z,7.80
2023-02-22T09:15:40.606Z,8.00
2023-02-22T09:18:10.703Z,8.30
2023-02-22T09:20:38.811Z,8.60
2023-02-22T09:23:09.644Z,9.10
2023-02-22T09:25:40.680Z,9.10
2023-02-22T09:28:09.500Z,9.40
2023-02-22T09:30:39.677Z,9.50
2023-02-22T09:33:10.975Z,9.70
2023-02-22T09:35:42.186Z,9.90
2023-02-22T09:38:11.452Z,10.10
2023-02-22T09:40:45.095Z,10.10
2023-02-22T09:43:41.028Z,10.10
2023-02-22T09:46:20.209Z,10.60
2023-02-22T09:49:00.453Z,11.20
2023-02-22T09:51:35.703Z,11.50
2023-02-22T09:54:07.275Z,11.70
2023-02-22T09:56:36.220Z,11.50
2023-02-22T09:59:08.324Z,11.60
2023-02-22T10:01:42.606Z,11.20
2023-02-22T10:04:18.582Z,11.10
2023-02-22T10:07:02.007Z,11.50
2023-02-22T10:09:30.334Z,11.70
2023-02-22T10:12:00.927Z,11.90
2023-02-22T10:14:45.252Z,11.70
2023-02-22T10:17:23.758Z,11.30
2023-02-22T10:20:13.402Z,11.50
2023-02-22T10:23:02.741Z,11.60
2023-02-22T10:25:35.625Z,11.70
2023-02-22T10:28:10.821Z,11.80
2023-02-22T10:30:43.083Z,11.50
2023-02-22T10:33:16.631Z,11.00
2023-02-22T10:35:47.203Z,11.20
2023-02-22T10:38:20.150Z,11.20
2023-02-22T10:40:53.115Z,11.60
2023-02-22T10:43:20.978Z,11.70
2023-02-22T10:45:50.179Z,11.50
2023-02-22T10:48:21.058Z,11.30
2023-02-22T10:50:50.445Z,11.40
2023-02-22T10:53:18.254Z,11.40
2023-02-22T10:56:09.718Z,11.90
2023-02-22T10:58:50.672Z,12.10
2023-02-22T11:01:24.388Z,12.40
2023-02-22T11:04:03.992Z,12.90
2023-02-22T11:06:33.996Z,13.50
2023-02-22T11:09:11.539Z,14.00
2023-02-22T11:11:41.259Z,14.30
2023-02-22T11:14:10.717Z,14.40
2023-02-22T11:16:41.544Z,14.60
2023-02-22T11:19:21.077Z,14.70
2023-02-22T11:21:51.427Z,14.90
2023-02-22T11:24:20.912Z,15.20
2023-02-22T11:26:52.575Z,15.40
2023-02-22T11:29:23.833Z,15.40
2023-02-22T11:31:51.908Z,15.30
2023-02-22T11:34:34.431Z,15.20
2023-02-22T11:37:33.378Z,15.30
2023-02-22T11:40:18.276Z,14.80
2023-02-22T11:42:46.740Z,14.40
2023-02-22T11:45:20.724Z,14.00
2023-02-22T11:47:52.956Z,14.10
2023-02-22T11:50:31.569Z,14.20
2023-02-22T11:53:16.232Z,13.50
2023-02-22T11:55:52.986Z,13.70
2023-02-22T11:58:35.190Z,13.40
2023-02-22T12:01:09.357Z,13.40
2023-02-22T12:03:54.336Z,13.20
2023-02-22T12:06:33.881Z,13.30
2023-02-22T12:09:12.430Z,13.30
2023-02-22T12:11:51.364Z,13.50
2023-02-22T12:14:27.089Z,13.80
2023-02-22T12:17:27.765Z,13.90
2023-02-22T12:20:01.570Z,14.10
2023-02-22T12:22:34.936Z,14.40
2023-02-22T12:25:10.017Z,14.50
2023-02-22T12:27:43.288Z,14.70
2023-02-22T12:30:17.280Z,14.20
2023-02-22T12:32:48.583Z,14.40
2023-02-22T12:35:21.653Z,14.70
2023-02-22T12:37:58.417Z,15.00
2023-02-22T12:40:35.422Z,15.00
2023-02-22T12:43:09.513Z,15.30
2023-02-22T12:45:44.039Z,15.80
2023-02-22T12:48:31.394Z,15.90
2023-02-22T12:51:04.687Z,15.70
2023-02-22T12:53:38.795Z,15.20
2023-02-22T12:56:19.022Z,14.80
2023-02-22T12:58:55.072Z,14.60
2023-02-22T13:01:26.829Z,14.40
2023-02-22T13:03:56.717Z,13.80
2023-02-22T13:06:41.519Z,13.70
2023-02-22T13:09:42.734Z,13.50
2023-02-22T13:12:17.445Z,13.70
2023-02-22T13:14:56.320Z,13.60
2023-02-22T13:17:31.847Z,13.70
2023-02-22T13:20:06.167Z,13.90
2023-02-22T13:22:41.377Z,14.40
2023-02-22T13:25:15.841Z,14.30
2023-02-22T13:27:51.037Z,14.40
2023-02-22T13:30:24.077Z,14.40
2023-02-22T13:33:14.337Z,14.40
2023-02-22T13:35:56.580Z,14.00
2023-02-22T13:39:06.151Z,13.90
2023-02-22T13:41:55.189Z,13.60
2023-02-22T13:44:46.593Z,13.30
2023-02-22T13:47:50.671Z,13.30
2023-02-22T13:50:32.466Z,13.10
2023-02-22T13:53:04.939Z,12.90
2023-02-22T13:55:35.146Z,13.20
2023-02-22T13:58:06.010Z,13.30
2023-02-22T14:00:46.645Z,13.30
2023-02-22T14:03:40.435Z,13.20
2023-02-22T14:06:32.630Z,13.30
2023-02-22T14:09:00.840Z,13.50
2023-02-22T14:11:54.127Z,13.60
2023-02-22T14:14:22.572Z,13.70
2023-02-22T14:17:24.046Z,13.80
2023-02-22T14:20:30.203Z,13.90
2023-02-22T14:22:59.847Z,14.00
2023-02-22T14:25:43.068Z,13.70
2023-02-22T14:28:36.606Z,13.70
2023-02-22T14:31:25.771Z,13.70
2023-02-22T14:34:06.357Z,13.50
2023-02-22T14:36:39.664Z,13.40
2023-02-22T14:39:15.538Z,13.50
2023-02-22T14:41:49.872Z,13.50
2023-02-22T14:44:24.894Z,13.20
2023-02-22T14:46:55.020Z,13.20
2023-02-22T14:49:28.428Z,13.30
2023-02-22T14:52:03.789Z,13.40
2023-02-22T14:54:36.995Z,13.50
2023-02-22T14:57:16.068Z,13.60
2023-02-22T14:59:59.049Z,13.60
2023-02-22T15:02:26.954Z,13.60
2023-02-22T15:04:56.927Z,13.60
2023-02-22T15:07:28.843Z,13.50
2023-02-22T15:10:20.534Z,13.50
2023-02-22T15:13:08.691Z,13.40
2023-02-22T15:15:40.595Z,13.50
2023-02-22T15:18:19.477Z,13.60
2023-02-22T15:20:55.790Z,13.70
2023-02-22T15:23:30.418Z,13.60
2023-02-22T15:25:58.874Z,13.70
2023-02-22T15:28:30.877Z,13.60
2023-02-22T15:31:17.817Z,13.60
2023-02-22T15:33:46.957Z,13.60
2023-02-22T15:36:18.096Z,13.60
2023-02-22T15:38:50.372Z,13.60
2023-02-22T15:41:28.707Z,13.50
2023-02-22T15:44:14.224Z,13.50
2023-02-22T15:46:50.605Z,13.50
2023-02-22T15:49:24.283Z,13.40
2023-02-22T15:52:06.038Z,13.30
2023-02-22T15:54:43.922Z,13.40
2023-02-22T15:57:16.416Z,13.30
2023-02-22T15:59:49.506Z,13.30
2023-02-22T16:02:33.969Z,13.20
2023-02-22T16:05:05.538Z,13.10
2023-02-22T16:07:37.429Z,13.10
2023-02-22T16:10:09.146Z,13.10
2023-02-22T16:12:37.118Z,13.10
2023-02-22T16:15:17.296Z,13.00
2023-02-22T16:18:01.081Z,12.90
2023-02-22T16:20:36.559Z,12.90
2023-02-22T16:23:24.446Z,12.80
2023-02-22T16:26:20.815Z,12.70
2023-02-22T16:28:51.858Z,12.70
2023-02-22T16:31:21.978Z,12.60
2023-02-22T16:33:51.149Z,12.50
2023-02-22T16:36:20.248Z,12.40
2023-02-22T16:38:51.725Z,12.40
2023-02-22T16:41:20.508Z,12.30
2023-02-22T16:43:51.263Z,12.30
2023-02-22T16:46:20.040Z,12.20
2023-02-22T16:48:48.118Z,12.20
2023-02-22T16:51:22.054Z,12.10
2023-02-22T16:53:53.525Z,12.10
2023-02-22T16:56:26.035Z,12.00
2023-02-22T16:58:54.064Z,11.90
2023-02-22T17:01:23.253Z,11.80
2023-02-22T17:03:53.766Z,11.70
2023-02-22T17:06:22.137Z,11.70
2023-02-22T17:08:52.542Z,11.50
2023-02-22T17:11:20.632Z,11.50
2023-02-22T17:13:51.671Z,11.40
2023-02-22T17:16:19.860Z,11.30
2023-02-22T17:18:47.927Z,11.20
2023-02-22T17:21:16.549Z,11.20
2023-02-22T17:23:45.844Z,11.10
2023-02-22T17:26:17.130Z,11.00
2023-02-22T17:28:45.271Z,10.90
2023-02-22T17:31:21.379Z,10.80
2023-02-22T17:33:51.213Z,10.80
2023-02-22T17:36:20.681Z,10.70
2023-02-22T17:38:49.843Z,10.60
2023-02-22T17:41:19.048Z,10.60
2023-02-22T17:43:46.964Z,10.60
2023-02-22T17:46:15.058Z,10.50
2023-02-22T17:48:43.081Z,10.50
2023-02-22T17:51:12.585Z,10.50
2023-02-22T17:53:40.739Z,10.40
2023-02-22T17:56:10.341Z,10.40
2023-02-22T17:58:40.032Z,10.40
2023-02-22T18:01:07.969Z,10.40
2023-02-22T18:03:39.400Z,10.30
2023-02-22T18:06:08.445Z,10.30
2023-02-22T18:08:39.248Z,10.30
2023-02-22T18:11:07.391Z,10.30
2023-02-22T18:13:35.222Z,10.20
2023-02-22T18:16:05.592Z,10.20
2023-02-22T18:18:34.066Z,10.20
2023-02-22T18:21:02.192Z,10.20
2023-02-22T18:23:31.661Z,10.20
2023-02-22T18:26:11.197Z,10.20
2023-02-22T18:28:50.356Z,10.20
2023-02-22T18:31:21.514Z,10.20
2023-02-22T18:33:52.130Z,10.30
2023-02-22T18:36:22.766Z,10.30
2023-02-22T18:38:52.925Z,10.30
2023-02-22T18:41:25.022Z,10.30
2023-02-22T18:43:55.031Z,10.30
2023-02-22T18:46:25.483Z,10.30
2023-02-22T18:48:54.842Z,10.40
2023-02-22T18:51:22.749Z,10.40
2023-02-22T18:53:54.830Z,10.40
2023-02-22T18:56:24.313Z,10.40
2023-02-22T18:58:54.368Z,10.30
2023-02-22T19:01:22.509Z,10.40
2023-02-22T19:03:52.646Z,10.30
2023-02-22T19:06:22.449Z,10.40
2023-02-22T19:08:51.276Z,10.40
2023-02-22T19:11:21.685Z,10.30
2023-02-22T19:13:51.807Z,10.30
2023-02-22T19:16:21.462Z,10.30
2023-02-22T19:18:52.509Z,10.30
2023-02-22T19:21:21.356Z,10.30
2023-02-22T19:23:49.526Z,10.20
2023-02-22T19:26:20.145Z,10.20
2023-02-22T19:28:49.116Z,10.20
2023-02-22T19:31:19.412Z,10.20
2023-02-22T19:33:51.123Z,10.10
2023-02-22T19:36:22.891Z,10.10
2023-02-22T19:38:50.934Z,10.10
2023-02-22T19:41:22.811Z,10.00
2023-02-22T19:43:52.199Z,10.00
2023-02-22T19:46:21.328Z,10.00
2023-02-22T19:48:49.387Z,9.90
2023-02-22T19:51:19.040Z,9.90
2023-02-22T19:53:48.449Z,9.90
2023-02-22T19:56:18.932Z,9.90
2023-02-22T19:58:50.456Z,9.80
2023-02-22T20:01:22.862Z,9.80
2023-02-22T20:03:54.169Z,9.90
2023-02-22T20:06:26.509Z,9.90
2023-02-22T20:08:56.526Z,9.80
2023-02-22T20:11:25.746Z,9.90
2023-02-22T20:13:55.478Z,9.80
2023-02-22T20:16:23.720Z,9.80
2023-02-22T20:18:52.310Z,9.80
2023-02-22T20:21:23.474Z,9.80
2023-02-22T20:23:51.330Z,9.70
2023-02-22T20:26:23.992Z,9.60
2023-02-22T20:28:53.065Z,9.60
2023-02-22T20:31:22.195Z,9.60
2023-02-22T20:33:54.565Z,9.60
2023-02-22T20:36:23.053Z,9.60
2023-02-22T20:38:53.785Z,9.50
2023-02-22T20:41:26.117Z,9.50
2023-02-22T20:43:56.193Z,9.50
2023-02-22T20:46:25.216Z,9.50
2023-02-22T20:48:56.275Z,9.40
2023-02-22T20:51:24.692Z,9.50
2023-02-22T20:53:52.861Z,9.50
2023-02-22T20:56:23.577Z,9.50
2023-02-22T20:58:52.390Z,9.50
2023-02-22T21:01:22.566Z,9.40
2023-02-22T21:03:51.249Z,9.40
2023-02-22T21:06:21.394Z,9.40
2023-02-22T21:08:53.580Z,9.40
2023-02-22T21:11:24.127Z,9.40
2023-02-22T21:13:52.719Z,9.40
2023-02-22T21:16:22.583Z,9.40
2023-02-22T21:18:51.901Z,9.50
2023-02-22T21:21:20.643Z,9.50
2023-02-22T21:23:51.063Z,9.50
2023-02-22T21:26:23.469Z,9.40
2023-02-22T21:28:53.259Z,9.50
2023-02-22T21:31:23.792Z,9.50
2023-02-22T21:33:53.255Z,9.50
2023-02-22T21:36:25.055Z,9.50
2023-02-22T21:38:55.915Z,9.50
2023-02-22T21:41:27.762Z,9.50
2023-02-22T21:43:58.654Z,9.60
2023-02-22T21:46:27.839Z,9.50
2023-02-22T21:48:58.436Z,9.60
2023-02-22T21:51:31.826Z,9.60
2023-02-22T21:54:01.984Z,9.60
2023-02-22T21:56:32.272Z,9.60
2023-02-22T21:59:04.946Z,9.70
2023-02-22T22:01:35.441Z,9.70
2023-02-22T22:04:04.938Z,9.70
2023-02-22T22:06:34.709Z,9.80
2023-02-22T22:09:05.035Z,9.80
2023-02-22T22:11:32.859Z,9.90
2023-02-22T22:14:02.001Z,9.90
2023-02-22T22:16:30.444Z,9.90
2023-02-22T22:18:58.545Z,10.00
2023-02-22T22:21:26.869Z,10.00
2023-02-22T22:23:56.000Z,9.90
2023-02-22T22:26:25.404Z,9.90
2023-02-22T22:28:57.396Z,10.00
2023-02-22T22:31:28.146Z,10.00
2023-02-22T22:33:57.230Z,9.90
2023-02-22T22:36:26.583Z,9.90
2023-02-22T22:38:57.232Z,9.90
2023-02-22T22:41:27.949Z,9.90
2023-02-22T22:43:56.282Z,10.10
2023-02-22T22:46:25.916Z,10.30
2023-02-22T22:48:53.751Z,10.40
2023-02-22T22:51:22.590Z,10.70
2023-02-22T22:53:51.621Z,10.70
2023-02-22T22:56:21.341Z,10.80
2023-02-22T22:58:50.835Z,10.90
2023-02-22T23:01:26.699Z,10.90
2023-02-22T23:04:02.146Z,10.90
2023-02-22T23:06:33.274Z,10.90
2023-02-22T23:09:10.345Z,11.00
2023-02-22T23:11:44.181Z,11.00
2023-02-22T23:14:13.497Z,11.10
2023-02-22T23:16:42.696Z,11.10
2023-02-22T23:19:12.141Z,11.20
2023-02-22T23:21:43.020Z,11.20
2023-02-22T23:24:15.139Z,11.20
2023-02-22T23:26:48.269Z,11.20
2023-02-22T23:29:16.850Z,11.30
2023-02-22T23:31:47.847Z,11.30
2023-02-22T23:34:17.641Z,11.30
2023-02-22T23:36:46.637Z,11.40
2023-02-22T23:39:16.801Z,11.40
2023-02-22T23:41:44.824Z,11.40
2023-02-22T23:44:17.245Z,11.40
2023-02-22T23:46:48.206Z,11.50
2023-02-22T23:49:20.261Z,11.50
2023-02-22T23:51:48.626Z,11.60
2023-02-22T23:54:19.313Z,11.70
2023-02-22T23:56:56.174Z,11.70
2023-02-22T23:59:25.058Z,11.70
